createdAt,value
2022-09-14T00:03:24.919Z,100873.47
2022-09-14T00:08:28.778Z,100893.41
2022-09-14T00:13:31.165Z,100865.56
2022-09-14T00:18:35.056Z,100874.50
2022-09-14T00:23:39.011Z,100889.88
2022-09-14T00:28:47.011Z,100905.22
2022-09-14T00:33:50.743Z,100891.72
2022-09-14T00:38:55.355Z,100856.94
2022-09-14T00:43:57.545Z,100899.22
2022-09-14T00:49:01.924Z,100884.88
2022-09-14T00:54:05.278Z,100875.09
2022-09-14T00:59:16.455Z,100868.84
2022-09-14T01:04:18.642Z,100858.88
2022-09-14T01:09:32.428Z,100841.00
2022-09-14T01:15:02.467Z,100835.59
2022-09-14T01:20:16.280Z,100841.00
2022-09-14T01:25:30.493Z,100821.25
2022-09-14T01:30:34.701Z,100839.13
2022-09-14T01:35:46.651Z,100846.59
2022-09-14T01:40:51.101Z,100841.00
2022-09-14T01:45:57.960Z,100838.94
2022-09-14T01:51:02.837Z,100887.34
2022-09-14T01:56:15.864Z,100907.31
2022-09-14T02:01:25.194Z,100916.22
2022-09-14T02:06:31.940Z,100884.03
2022-09-14T02:11:34.144Z,100866.13
2022-09-14T02:16:36.282Z,100865.75
2022-09-14T02:21:38.883Z,100857.38
2022-09-14T02:26:41.937Z,100832.25
2022-09-14T02:31:57.901Z,100809.63
2022-09-14T02:37:05.732Z,100803.38
2022-09-14T02:42:45.484Z,100790.91
2022-09-14T02:48:14.258Z,100790.06
2022-09-14T02:53:45.141Z,100786.34
2022-09-14T02:58:47.431Z,100778.41
2022-09-14T03:03:49.832Z,100766.59
2022-09-14T03:08:52.188Z,100763.06
2022-09-14T03:13:54.279Z,100769.09
2022-09-14T03:18:56.247Z,100761.19
2022-09-14T03:23:58.579Z,100766.81
2022-09-14T03:29:00.644Z,100785.50
2022-09-14T03:34:02.805Z,100828.69
2022-09-14T03:39:04.876Z,100852.16
2022-09-14T03:44:07.047Z,100886.25
2022-09-14T03:49:09.091Z,100936.72
2022-09-14T03:54:11.185Z,100969.78
2022-09-14T03:59:13.260Z,100952.09
2022-09-14T04:04:16.704Z,100946.06
2022-09-14T04:09:19.537Z,100939.63
2022-09-14T04:14:21.605Z,100918.03
2022-09-14T04:19:23.808Z,100920.72
2022-09-14T04:24:30.110Z,100941.50
2022-09-14T04:29:32.977Z,100944.19
2022-09-14T04:34:35.888Z,100938.59
2022-09-14T04:39:38.146Z,100944.38
2022-09-14T04:44:40.427Z,100983.66
2022-09-14T04:49:42.500Z,100987.19
2022-09-14T04:54:44.500Z,100947.75
2022-09-14T04:59:46.542Z,101008.91
2022-09-14T05:04:48.553Z,101002.78
2022-09-14T05:09:50.697Z,100997.53
2022-09-14T05:14:52.777Z,100970.72
2022-09-14T05:19:54.807Z,100974.25
2022-09-14T05:24:56.885Z,100955.19
2022-09-14T05:29:58.867Z,100956.19
2022-09-14T05:35:01.091Z,100985.91
2022-09-14T05:40:04.287Z,100967.00
2022-09-14T05:45:06.851Z,100966.16
2022-09-14T05:50:09.320Z,100937.47
2022-09-14T05:55:11.389Z,100951.81
2022-09-14T06:00:14.444Z,100944.75
2022-09-14T06:05:17.949Z,100973.41
2022-09-14T06:10:21.466Z,100995.19
2022-09-14T06:15:24.864Z,101001.44
2022-09-14T06:20:27.156Z,100992.50
2022-09-14T06:25:29.216Z,100977.16
2022-09-14T06:30:31.301Z,100990.66
2022-09-14T06:35:33.378Z,101027.44
2022-09-14T06:40:35.512Z,101015.16
2022-09-14T06:45:37.568Z,101007.69
2022-09-14T06:50:39.564Z,101010.78
2022-09-14T06:55:41.623Z,101033.22
2022-09-14T07:00:43.733Z,101041.31
2022-09-14T07:05:45.834Z,101059.38
2022-09-14T07:10:56.397Z,101070.00
2022-09-14T07:15:58.616Z,101081.13
2022-09-14T07:21:12.720Z,101070.19
2022-09-14T07:26:23.388Z,101057.00
2022-09-14T07:31:54.308Z,101035.41
2022-09-14T07:36:56.391Z,101026.19
2022-09-14T07:41:58.385Z,101022.47
2022-09-14T07:47:00.395Z,101028.44
2022-09-14T07:52:02.673Z,101037.22
2022-09-14T07:57:04.718Z,101035.53
2022-09-14T08:02:11.763Z,101049.69
2022-09-14T08:07:14.851Z,101072.75
2022-09-14T08:12:16.623Z,101087.31
2022-09-14T08:17:18.589Z,101081.06
2022-09-14T08:22:20.615Z,101081.44
2022-09-14T08:27:22.499Z,101102.19
2022-09-14T08:32:24.881Z,101144.38
2022-09-14T08:37:26.788Z,101159.41
2022-09-14T08:42:29.004Z,101136.66
2022-09-14T08:47:36.977Z,101119.63
2022-09-14T08:52:43.613Z,101152.03
2022-09-14T08:58:08.465Z,101144.81
2022-09-14T09:03:37.820Z,101182.88
2022-09-14T09:08:58.969Z,101181.22
2022-09-14T09:14:08.769Z,101190.16
2022-09-14T09:19:17.226Z,101146.09
2022-09-14T09:24:38.049Z,101143.63
2022-09-14T09:29:40.698Z,101157.94
2022-09-14T09:34:46.024Z,101164.16
2022-09-14T09:40:01.187Z,101172.28
2022-09-14T09:45:10.611Z,101191.16
2022-09-14T09:50:20.194Z,101200.09
2022-09-14T09:55:26.348Z,101178.34
2022-09-14T10:00:30.140Z,101172.09
2022-09-14T10:05:33.364Z,101188.28
2022-09-14T10:10:35.524Z,101145.09
2022-09-14T10:15:37.813Z,101117.25
2022-09-14T10:20:43.977Z,101094.63
2022-09-14T10:25:47.115Z,101100.88
2022-09-14T10:31:15.103Z,101108.13
2022-09-14T10:36:39.160Z,101131.59
2022-09-14T10:41:54.193Z,101168.72
2022-09-14T10:47:12.583Z,101197.22
2022-09-14T10:52:35.811Z,101144.06
2022-09-14T10:57:51.092Z,101173.78
2022-09-14T11:03:16.062Z,101116.72
2022-09-14T11:08:26.892Z,101127.34
2022-09-14T11:13:47.627Z,101178.31
2022-09-14T11:19:25.192Z,101186.75
2022-09-14T11:24:34.739Z,101169.06
2022-09-14T11:29:54.788Z,101177.19
2022-09-14T11:35:22.585Z,101215.81
2022-09-14T11:40:37.578Z,101219.53
2022-09-14T11:45:48.522Z,101186.28
2022-09-14T11:51:06.291Z,101208.88
2022-09-14T11:56:26.956Z,101189.13
2022-09-14T12:01:31.356Z,101207.06
2022-09-14T12:06:36.356Z,101177.34
2022-09-14T12:11:38.780Z,101185.44
2022-09-14T12:17:22.821Z,101156.72
2022-09-14T12:22:31.803Z,101124.34
2022-09-14T12:27:37.813Z,101182.06
2022-09-14T12:32:43.279Z,101172.09
2022-09-14T12:37:45.820Z,101130.44
2022-09-14T12:42:48.272Z,101150.16
2022-09-14T12:47:52.008Z,101122.31
2022-09-14T12:53:00.946Z,101140.22
2022-09-14T12:58:31.003Z,101143.66
2022-09-14T13:03:59.008Z,101162.19
2022-09-14T13:09:06.250Z,101143.47
2022-09-14T13:14:19.376Z,101136.38
2022-09-14T13:19:30.664Z,101151.75
2022-09-14T13:24:42.983Z,101167.13
2022-09-14T13:29:45.043Z,101156.13
2022-09-14T13:34:47.725Z,101141.13
2022-09-14T13:39:53.060Z,101145.50
2022-09-14T13:44:55.508Z,101123.06
2022-09-14T13:49:58.436Z,101095.97
2022-09-14T13:55:17.943Z,101130.16
2022-09-14T14:00:21.797Z,101142.81
2022-09-14T14:05:29.784Z,101136.56
2022-09-14T14:10:39.079Z,101155.47
2022-09-14T14:15:43.079Z,101151.94
2022-09-14T14:20:45.185Z,101115.16
2022-09-14T14:25:54.711Z,101099.78
2022-09-14T14:30:59.439Z,101124.91
2022-09-14T14:36:08.497Z,101117.66
2022-09-14T14:41:19.468Z,101124.91
2022-09-14T14:46:21.616Z,101103.31
2022-09-14T14:51:23.779Z,101129.47
2022-09-14T14:56:26.171Z,101094.59
2022-09-14T15:01:28.798Z,101108.94
2022-09-14T15:06:30.834Z,101118.88
2022-09-14T15:11:32.863Z,101102.69
2022-09-14T15:16:35.274Z,101093.56
2022-09-14T15:21:41.739Z,101040.56
2022-09-14T15:26:43.809Z,101036.63
2022-09-14T15:31:46.262Z,100995.94
2022-09-14T15:36:53.330Z,100993.91
2022-09-14T15:41:56.288Z,101025.47
2022-09-14T15:46:58.245Z,100973.31
2022-09-14T15:52:00.536Z,100956.38
2022-09-14T15:57:03.780Z,100944.72
2022-09-14T16:02:06.296Z,100992.31
2022-09-14T16:07:10.126Z,101005.25
2022-09-14T16:12:13.840Z,101029.28
2022-09-14T16:17:15.943Z,101050.31
2022-09-14T16:22:17.957Z,101062.63
2022-09-14T16:27:20.015Z,101073.25
2022-09-14T16:32:22.428Z,101073.03
2022-09-14T16:37:24.704Z,101078.94
2022-09-14T16:42:27.413Z,101057.69
2022-09-14T16:47:33.266Z,101053.13
2022-09-14T16:52:35.737Z,101038.78
2022-09-14T16:57:37.692Z,101040.63
2022-09-14T17:02:39.861Z,101023.59
2022-09-14T17:07:42.240Z,101024.06
2022-09-14T17:12:46.938Z,101037.09
2022-09-14T17:17:49.019Z,101031.16
2022-09-14T17:22:51.071Z,100993.69
2022-09-14T17:27:53.275Z,101006.63
2022-09-14T17:32:55.265Z,100996.03
2022-09-14T17:37:57.289Z,101026.09
2022-09-14T17:42:59.380Z,101002.81
2022-09-14T17:48:01.593Z,101023.41
2022-09-14T17:53:03.576Z,101068.47
2022-09-14T17:58:05.672Z,101038.69
2022-09-14T18:03:09.477Z,101043.34
2022-09-14T18:08:11.603Z,101028.34
2022-09-14T18:13:13.584Z,101018.84
2022-09-14T18:18:15.628Z,100989.97
2022-09-14T18:23:18.406Z,100994.34
2022-09-14T18:28:21.647Z,101014.28
2022-09-14T18:33:23.737Z,101022.56
2022-09-14T18:38:25.841Z,101001.13
2022-09-14T18:43:27.796Z,101028.97
2022-09-14T18:48:29.876Z,101053.97
2022-09-14T18:53:32.568Z,101051.44
2022-09-14T18:58:36.228Z,101041.13
2022-09-14T19:03:40.445Z,101048.56
2022-09-14T19:08:43.377Z,101056.94
2022-09-14T19:13:46.728Z,101034.69
2022-09-14T19:18:49.770Z,101037.16
2022-09-14T19:24:01.918Z,101042.31
2022-09-14T19:29:04.335Z,101037.56
2022-09-14T19:34:07.104Z,101039.44
2022-09-14T19:39:09.420Z,101050.22
2022-09-14T19:44:12.384Z,101045.00
2022-09-14T19:49:17.192Z,101042.78
2022-09-14T19:54:19.659Z,101051.91
2022-09-14T19:59:21.693Z,101063.56
2022-09-14T20:04:23.979Z,101068.97
2022-09-14T20:09:26.113Z,101072.50
2022-09-14T20:14:28.164Z,101054.63
2022-09-14T20:19:32.825Z,101052.75
2022-09-14T20:24:35.994Z,101064.41
2022-09-14T20:29:38.108Z,101057.50
2022-09-14T20:34:40.274Z,101039.88
2022-09-14T20:39:42.341Z,101029.47
2022-09-14T20:44:44.502Z,100978.31
2022-09-14T20:49:46.583Z,100983.91
2022-09-14T20:54:48.600Z,100954.41
2022-09-14T20:59:50.828Z,101016.72
2022-09-14T21:04:52.915Z,101088.16
2022-09-14T21:09:54.972Z,101077.91
2022-09-14T21:14:56.979Z,101107.78
2022-09-14T21:19:59.168Z,101105.94
2022-09-14T21:25:01.232Z,101096.81
2022-09-14T21:30:03.366Z,101071.66
2022-09-14T21:35:05.979Z,101067.47
2022-09-14T21:40:09.075Z,101109.88
2022-09-14T21:45:12.446Z,101122.53
2022-09-14T21:50:14.400Z,101136.22
2022-09-14T21:55:16.472Z,101151.56
2022-09-14T22:00:19.486Z,101146.34
2022-09-14T22:05:21.685Z,101146.34
2022-09-14T22:10:23.756Z,101122.03
2022-09-14T22:15:32.065Z,101185.19
2022-09-14T22:20:34.516Z,101227.53
2022-09-14T22:25:40.499Z,101216.75
2022-09-14T22:30:54.629Z,101241.06
2022-09-14T22:35:59.043Z,101267.72
2022-09-14T22:41:04.315Z,101229.22
2022-09-14T22:46:07.795Z,101230.06
2022-09-14T22:51:16.206Z,101265.34
2022-09-14T22:56:27.107Z,101226.34
2022-09-14T23:01:38.594Z,101198.69
2022-09-14T23:06:43.954Z,101208.63
2022-09-14T23:11:46.819Z,101224.66
2022-09-14T23:16:49.087Z,101238.00
2022-09-14T23:21:51.653Z,101180.44
2022-09-14T23:33:34.805Z,101180.78
2022-09-14T23:38:36.890Z,101176.91
2022-09-14T23:43:39.006Z,101186.03
2022-09-14T23:48:41.149Z,101198.50
2022-09-14T23:53:43.472Z,101193.28
2022-09-14T23:58:45.760Z,101191.59
